Storm Events Database

Event Details

Event Thunderstorm Wind
Magnitude 52 kts.
State NEBRASKA
County/Area DEUEL
WFO LBF
Report Source Public
NCDC Data Source CSV
Begin Date 2009-06-26 16:38:00.0 MST-7
Begin Location 8N CHAPPELL
Begin Lat/Lon 41.21/-102.47
End Date 2009-06-26 16:38:00.0 MST-7
Deaths Direct/Indirect 0/0 (fatality details below, when available...)
Injuries Direct/Indirect 0/0
Property Damage 0.00K
Crop Damage 0.00K
Episode Narrative Numerous thunderstorms moved northeast out of Colorado and into southwest Nebraska during the afternoon hours. The storms initially produced large hail. However, then the storms started to develop into a bow echo as they moved northeast and produced very strong winds and a couple of brief tornadoes.
Event Narrative The winds broke large tree limbs.


     ‚Äč



All events for this episode:

Location County/Zone St. Date Time T.Z. Type Mag Dth Inj PrD CrD
Totals: 0 0 457.25K 45.00K
CHAPPELL DEUEL CO. NE 06/26/2009 14:00 MST-7 Funnel Cloud 0 0 0.00K 0.00K
CHAPPELL DEUEL CO. NE 06/26/2009 14:00 MST-7 Hail 1.75 in. 0 0 5.00K 10.00K
CHAPPELL DEUEL CO. NE 06/26/2009 14:55 MST-7 Hail 1.00 in. 0 0 0.00K 0.00K
BIG SPGS DEUEL CO. NE 06/26/2009 15:09 MST-7 Thunderstorm Wind 55 kts. MG 0 0 0.00K 10.00K
BIG SPGS DEUEL CO. NE 06/26/2009 15:15 MST-7 Hail 1.75 in. 0 0 8.00K 15.00K
CHAPPELL DEUEL CO. NE 06/26/2009 15:17 MST-7 Hail 1.75 in. 0 0 5.00K 10.00K
BRULE KEITH CO. NE 06/26/2009 15:41 MST-7 Hail 1.00 in. 0 0 0.00K 0.00K
LAKE MC CONAGHY KEITH CO. NE 06/26/2009 16:00 MST-7 Hail 4.25 in. 0 0 35.00K 0.00K
LEMOYNE KEITH CO. NE 06/26/2009 16:00 MST-7 Thunderstorm Wind 52 kts. EG 0 0 2.50K 0.00K
LISCO GARDEN CO. NE 06/26/2009 16:37 MST-7 Hail 1.00 in. 0 0 0.00K 0.00K
CHAPPELL DEUEL CO. NE 06/26/2009 16:38 MST-7 Thunderstorm Wind 52 kts. EG 0 0 0.00K 0.00K
KEYSTONE KEITH CO. NE 06/26/2009 17:00 MST-7 Hail 1.75 in. 0 0 8.00K 0.00K
KEYSTONE KEITH CO. NE 06/26/2009 17:00 MST-7 Thunderstorm Wind 52 kts. EG 0 0 8.00K 0.00K
CHAMPION CHASE CO. NE 06/26/2009 17:12 MST-7 Thunderstorm Wind 52 kts. EG 0 0 40.00K 0.00K
IMPERIAL CHASE CO. NE 06/26/2009 17:15 MST-7 Thunderstorm Wind 70 kts. EG 0 0 10.00K 0.00K
ELSIE PERKINS CO. NE 06/26/2009 17:38 MST-7 Thunderstorm Wind 52 kts. EG 0 0 1.00K 0.00K
HAYES CENTER HAYES CO. NE 06/26/2009 17:40 CST-6 Thunderstorm Wind 60 kts. EG 0 0 0.00K 0.00K
GRAINTON PERKINS CO. NE 06/26/2009 17:45 MST-7 Thunderstorm Wind 70 kts. EG 0 0 70.00K 0.00K
WALLACE LINCOLN CO. NE 06/26/2009 17:55 CST-6 Thunderstorm Wind 70 kts. EG 0 0 70.00K 0.00K
NENZEL CHERRY CO. NE 06/26/2009 19:00 CST-6 Thunderstorm Wind 52 kts. EG 0 0 0.00K 0.00K
HERSHEY LINCOLN CO. NE 06/26/2009 19:10 CST-6 Thunderstorm Wind 61 kts. EG 0 0 0.00K 0.00K
HERSHEY LINCOLN CO. NE 06/26/2009 19:15 CST-6 Tornado EF0 0 0 0.75K 0.00K
NORTH PLATTE LINCOLN CO. NE 06/26/2009 19:22 CST-6 Thunderstorm Wind 61 kts. EG 0 0 40.00K 0.00K
NORTH PLATTE LINCOLN CO. NE 06/26/2009 19:22 CST-6 Tornado EF1 0 0 152.00K 0.00K
WELLFLEET LINCOLN CO. NE 06/26/2009 19:23 CST-6 Thunderstorm Wind 61 kts. EG 0 0 0.00K 0.00K
(LBF)BIRD FLD NORTH LINCOLN CO. NE 06/26/2009 19:30 CST-6 Thunderstorm Wind 52 kts. EG 0 0 0.00K 0.00K
BRADY LINCOLN CO. NE 06/26/2009 19:37 CST-6 Thunderstorm Wind 61 kts. EG 0 0 0.00K 0.00K
SWAN LAKE HOLT CO. NE 06/26/2009 21:30 CST-6 Thunderstorm Wind 52 kts. EG 0 0 0.00K 0.00K
O NEILL HOLT CO. NE 06/26/2009 21:45 CST-6 Thunderstorm Wind 52 kts. EG 0 0 2.00K 0.00K
MONOWI BOYD CO. NE 06/26/2009 22:05 CST-6 Thunderstorm Wind 52 kts. EG 0 0 0.00K 0.00K
Totals: 0 0 457.25K 45.00K